Time;durP1;ratioP1;P1;durP2;ratioP2;P2;SDS_P1;SDS_P2;PMS_P1;PMS_P2;Temp;Humidity;BMP_temperature;BMP_pressure;BME280_temperature;BME280_humidity;BME280_pressure;Samples;Min_cycle;Max_cycle;Signal;HPM_P1;HPM_P2
2022/03/30 00:01:31;;;;;;;10.60;6.65;;;;;;;;;;5038370;28;20061;-54
2022/03/30 00:03:57;;;;;;;12.68;6.53;;;;;;;;;;5047352;28;20040;-52
2022/03/30 00:06:24;;;;;;;14.68;6.82;;;;;;;;;;5049189;28;20024;-54
2022/03/30 00:08:50;;;;;;;14.13;6.95;;;;;;;;;;5049290;28;20039;-53
2022/03/30 00:11:16;;;;;;;9.98;5.65;;;;;;;;;;5048373;28;20013;-53
2022/03/30 00:13:42;;;;;;;12.02;6.97;;;;;;;;;;5049104;28;20155;-52
2022/03/30 00:16:10;;;;;;;12.73;7.20;;;;;;;;;;5048683;28;20021;-53
2022/03/30 00:18:36;;;;;;;10.95;5.78;;;;;;;;;;5047230;28;20048;-50
2022/03/30 00:21:02;;;;;;;12.15;6.25;;;;;;;;;;5048699;28;20033;-53
2022/03/30 00:23:28;;;;;;;12.88;6.95;;;;;;;;;;5048340;28;20065;-52
2022/03/30 00:25:54;;;;;;;13.32;7.05;;;;;;;;;;5048877;28;20451;-52
2022/03/30 00:28:20;;;;;;;13.15;7.03;;;;;;;;;;5048122;28;20056;-53
2022/03/30 00:30:46;;;;;;;12.93;6.25;;;;;;;;;;5048470;28;20029;-50
2022/03/30 00:33:12;;;;;;;14.10;6.53;;;;;;;;;;5046702;28;20045;-53
2022/03/30 00:35:38;;;;;;;13.02;6.75;;;;;;;;;;5048815;28;20446;-54
2022/03/30 00:38:04;;;;;;;12.48;6.47;;;;;;;;;;5048677;28;20495;-50
2022/03/30 00:40:30;;;;;;;12.10;6.50;;;;;;;;;;5048607;28;20086;-52
2022/03/30 00:42:56;;;;;;;12.32;6.80;;;;;;;;;;5048401;28;20102;-51
2022/03/30 00:45:23;;;;;;;12.57;6.72;;;;;;;;;;5045045;28;20107;-53
2022/03/30 00:47:50;;;;;;;13.52;6.75;;;;;;;;;;5048211;28;20024;-49
2022/03/30 00:50:17;;;;;;;14.07;6.30;;;;;;;;;;5048210;28;20053;-52
2022/03/30 00:52:45;;;;;;;11.27;7.53;;;;;;;;;;5040786;28;20129;-53
2022/03/30 00:55:13;;;;;;;12.00;6.45;;;;;;;;;;5048374;28;20511;-50
2022/03/30 00:57:39;;;;;;;9.13;6.20;;;;;;;;;;5048001;28;20036;-53
2022/03/30 01:00:07;;;;;;;10.48;6.35;;;;;;;;;;5047244;28;20063;-51
2022/03/30 01:02:33;;;;;;;12.43;6.57;;;;;;;;;;5047661;28;20061;-53
2022/03/30 01:04:59;;;;;;;10.65;6.05;;;;;;;;;;5048285;28;20049;-52
2022/03/30 01:07:25;;;;;;;11.65;6.28;;;;;;;;;;5045934;28;20021;-52
2022/03/30 01:09:51;;;;;;;12.73;6.43;;;;;;;;;;5046471;28;20439;-48
2022/03/30 01:12:17;;;;;;;12.32;6.85;;;;;;;;;;5047679;28;20503;-51
2022/03/30 01:14:44;;;;;;;12.25;6.03;;;;;;;;;;5047797;28;20025;-48
2022/03/30 01:17:10;;;;;;;10.63;6.47;;;;;;;;;;5047484;28;20124;-48
2022/03/30 01:19:37;;;;;;;13.93;6.45;;;;;;;;;;5047757;28;20467;-49
2022/03/30 01:22:03;;;;;;;13.32;6.90;;;;;;;;;;5047248;28;20467;-48
2022/03/30 01:24:29;;;;;;;11.57;6.35;;;;;;;;;;5045389;28;20559;-50
2022/03/30 01:26:55;;;;;;;11.65;6.05;;;;;;;;;;5048435;28;20033;-49
2022/03/30 01:32:25;;;;;;;12.05;6.78;;;;;;;;;;5048160;28;20063;-51
2022/03/30 01:34:52;;;;;;;10.85;6.20;;;;;;;;;;5047389;28;20033;-51
2022/03/30 01:37:18;;;;;;;11.70;6.22;;;;;;;;;;5047923;28;20099;-52
2022/03/30 01:39:44;;;;;;;10.98;6.95;;;;;;;;;;5047403;28;20075;-51
2022/03/30 01:42:10;;;;;;;10.93;5.65;;;;;;;;;;5047880;28;20082;-54
2022/03/30 01:44:37;;;;;;;10.52;6.35;;;;;;;;;;5047756;28;20021;-52
2022/03/30 01:47:03;;;;;;;10.18;6.07;;;;;;;;;;5047693;28;20177;-52
2022/03/30 01:49:29;;;;;;;12.05;6.43;;;;;;;;;;5038952;28;20029;-49
2022/03/30 01:51:56;;;;;;;10.80;5.50;;;;;;;;;;5046780;28;20647;-53
2022/03/30 01:54:23;;;;;;;12.10;6.15;;;;;;;;;;5044923;28;20029;-53
2022/03/30 01:56:49;;;;;;;12.20;6.32;;;;;;;;;;5051482;28;20025;-50
2022/03/30 01:59:15;;;;;;;11.18;6.32;;;;;;;;;;5033128;28;20025;-49
2022/03/30 02:01:41;;;;;;;10.55;5.82;;;;;;;;;;5050529;28;20151;-49
2022/03/30 02:04:08;;;;;;;11.85;6.40;;;;;;;;;;5051520;28;20533;-52
2022/03/30 02:06:34;;;;;;;9.63;5.05;;;;;;;;;;5051771;28;20399;-51
2022/03/30 02:09:00;;;;;;;9.32;6.30;;;;;;;;;;5051108;28;20068;-48
2022/03/30 02:11:28;;;;;;;12.88;6.03;;;;;;;;;;5051409;28;20025;-52
2022/03/30 02:13:55;;;;;;;9.88;6.18;;;;;;;;;;5050256;28;20032;-50
2022/03/30 02:16:21;;;;;;;10.85;6.10;;;;;;;;;;5050761;28;20025;-55
2022/03/30 02:18:47;;;;;;;9.77;6.00;;;;;;;;;;5051322;28;20025;-50
2022/03/30 02:21:15;;;;;;;11.90;6.63;;;;;;;;;;5049942;28;20067;-53
2022/03/30 02:23:41;;;;;;;11.60;6.53;;;;;;;;;;5049356;28;20104;-52
2022/03/30 02:26:07;;;;;;;12.82;5.90;;;;;;;;;;5051353;28;20036;-53
2022/03/30 02:28:33;;;;;;;10.55;6.32;;;;;;;;;;5050924;28;20060;-51
2022/03/30 02:31:00;;;;;;;10.43;6.63;;;;;;;;;;5050352;28;20013;-54
2022/03/30 02:33:26;;;;;;;14.10;6.20;;;;;;;;;;5049602;28;20037;-54
2022/03/30 02:35:53;;;;;;;12.07;7.13;;;;;;;;;;5050784;28;20036;-51
2022/03/30 02:38:19;;;;;;;11.35;6.57;;;;;;;;;;5050135;28;20505;-51
2022/03/30 02:40:45;;;;;;;11.50;6.50;;;;;;;;;;5048833;28;20112;-54
2022/03/30 02:43:11;;;;;;;13.82;6.60;;;;;;;;;;5050468;28;20029;-55
2022/03/30 02:45:38;;;;;;;9.15;5.55;;;;;;;;;;5051177;28;20376;-55
2022/03/30 02:48:21;;;;;;;11.38;6.60;;;;;;;;;;5050235;28;20021;-54
2022/03/30 02:50:51;;;;;;;11.55;6.25;;;;;;;;;;5050654;28;20120;-55
2022/03/30 02:53:30;;;;;;;11.27;5.88;;;;;;;;;;5050049;28;20037;-54
2022/03/30 02:55:56;;;;;;;10.65;5.38;;;;;;;;;;5044837;28;20022;-53
2022/03/30 02:58:22;;;;;;;10.85;6.07;;;;;;;;;;5048058;28;20120;-50
2022/03/30 03:00:49;;;;;;;11.75;6.88;;;;;;;;;;5050459;28;20120;-49
2022/03/30 03:03:15;;;;;;;10.63;6.15;;;;;;;;;;5049812;28;20470;-51
2022/03/30 03:05:42;;;;;;;11.00;6.15;;;;;;;;;;5049762;28;20040;-51
2022/03/30 03:08:10;;;;;;;11.55;5.80;;;;;;;;;;5049783;28;20112;-51
2022/03/30 03:10:37;;;;;;;9.43;5.53;;;;;;;;;;5048953;28;20979;-52
2022/03/30 03:13:04;;;;;;;10.45;6.45;;;;;;;;;;5049516;28;20443;-50
2022/03/30 03:15:31;;;;;;;12.43;5.55;;;;;;;;;;5050135;28;20029;-49
2022/03/30 03:17:57;;;;;;;12.55;6.22;;;;;;;;;;5049587;28;20074;-53
2022/03/30 03:20:24;;;;;;;12.07;5.57;;;;;;;;;;5040533;28;20029;-51
2022/03/30 03:22:50;;;;;;;9.63;5.35;;;;;;;;;;5036163;28;20017;-52
2022/03/30 03:25:16;;;;;;;10.73;5.85;;;;;;;;;;5049852;28;20036;-52
2022/03/30 03:27:42;;;;;;;11.23;6.20;;;;;;;;;;5049497;28;20041;-50
2022/03/30 03:30:09;;;;;;;9.32;5.78;;;;;;;;;;5049883;28;20123;-50
2022/03/30 03:32:35;;;;;;;10.50;6.05;;;;;;;;;;5049370;28;20087;-51
2022/03/30 03:35:01;;;;;;;11.35;5.95;;;;;;;;;;5045985;28;20063;-52
2022/03/30 03:37:27;;;;;;;10.68;6.07;;;;;;;;;;5050002;28;20029;-53
2022/03/30 03:39:53;;;;;;;14.43;6.55;;;;;;;;;;5049853;28;20025;-50
2022/03/30 03:42:21;;;;;;;9.52;6.07;;;;;;;;;;5048088;28;20671;-49
2022/03/30 03:44:47;;;;;;;13.00;6.75;;;;;;;;;;5049381;28;20451;-51
2022/03/30 03:47:13;;;;;;;11.45;6.07;;;;;;;;;;5049474;28;20159;-52
2022/03/30 03:49:40;;;;;;;13.32;5.85;;;;;;;;;;5049027;28;20542;-52
2022/03/30 03:52:06;;;;;;;11.05;6.15;;;;;;;;;;5049945;28;20032;-49
2022/03/30 03:54:33;;;;;;;9.80;5.20;;;;;;;;;;5048753;28;20052;-52
2022/03/30 03:56:59;;;;;;;11.57;6.18;;;;;;;;;;5048505;28;20216;-50
2022/03/30 03:59:25;;;;;;;9.50;5.40;;;;;;;;;;5048912;28;20104;-52
2022/03/30 04:01:51;;;;;;;13.52;5.85;;;;;;;;;;5049558;28;20479;-51
2022/03/30 04:04:20;;;;;;;10.25;5.47;;;;;;;;;;5048759;28;20096;-53
2022/03/30 04:06:46;;;;;;;11.98;6.35;;;;;;;;;;5049038;28;20426;-50
2022/03/30 04:09:12;;;;;;;11.30;5.32;;;;;;;;;;5048709;28;20029;-52
2022/03/30 04:11:38;;;;;;;12.45;6.68;;;;;;;;;;5040434;28;20087;-51
2022/03/30 04:14:04;;;;;;;21.20;8.00;;;;;;;;;;5048604;28;20451;-53
2022/03/30 04:16:30;;;;;;;21.58;10.90;;;;;;;;;;5041829;28;20104;-54
2022/03/30 04:18:56;;;;;;;29.70;13.52;;;;;;;;;;5029252;28;20028;-53
2022/03/30 04:21:22;;;;;;;30.95;15.77;;;;;;;;;;5048051;28;20044;-49
2022/03/30 04:23:48;;;;;;;37.60;14.52;;;;;;;;;;5048962;28;20039;-49
2022/03/30 04:26:14;;;;;;;28.67;13.82;;;;;;;;;;5047897;28;20028;-51
2022/03/30 04:28:40;;;;;;;27.58;13.88;;;;;;;;;;5048680;28;20049;-51
2022/03/30 04:31:08;;;;;;;27.08;13.13;;;;;;;;;;5048767;28;20028;-52
2022/03/30 04:33:35;;;;;;;23.13;12.98;;;;;;;;;;5048447;28;20040;-54
2022/03/30 04:36:01;;;;;;;25.63;12.85;;;;;;;;;;5048132;28;20032;-51
2022/03/30 04:38:27;;;;;;;29.80;14.13;;;;;;;;;;5048351;28;20444;-52
2022/03/30 04:40:53;;;;;;;29.13;12.88;;;;;;;;;;5044623;28;20066;-54
2022/03/30 04:43:19;;;;;;;24.25;13.63;;;;;;;;;;5048518;28;20029;-48
2022/03/30 04:45:45;;;;;;;30.70;14.55;;;;;;;;;;5048013;28;20075;-47
2022/03/30 04:48:11;;;;;;;25.38;14.10;;;;;;;;;;5048702;28;20029;-48
2022/03/30 04:50:37;;;;;;;29.13;14.48;;;;;;;;;;5048372;28;20087;-48
2022/03/30 04:53:03;;;;;;;27.88;15.13;;;;;;;;;;5048174;28;20120;-49
2022/03/30 04:55:31;;;;;;;31.45;15.35;;;;;;;;;;5044496;28;20478;-48
2022/03/30 04:57:56;;;;;;;36.47;14.38;;;;;;;;;;5047898;28;20075;-50
2022/03/30 05:00:23;;;;;;;29.92;15.52;;;;;;;;;;5048278;28;20383;-52
2022/03/30 05:02:49;;;;;;;27.83;14.57;;;;;;;;;;5048586;28;20147;-49
2022/03/30 05:05:15;;;;;;;23.25;12.35;;;;;;;;;;5048633;28;20202;-49
2022/03/30 05:07:41;;;;;;;29.13;13.30;;;;;;;;;;5044223;28;20032;-49
2022/03/30 05:10:10;;;;;;;29.00;12.60;;;;;;;;;;5040851;28;20061;-52
2022/03/30 05:12:36;;;;;;;26.33;11.25;;;;;;;;;;5047328;28;20391;-51
2022/03/30 05:15:02;;;;;;;23.67;11.68;;;;;;;;;;5048383;28;20201;-50
2022/03/30 05:17:28;;;;;;;38.00;12.38;;;;;;;;;;5047493;28;20040;-50
2022/03/30 05:19:54;;;;;;;30.17;11.45;;;;;;;;;;5048697;28;20116;-49
2022/03/30 05:22:20;;;;;;;19.85;10.38;;;;;;;;;;5047074;28;20029;-52
2022/03/30 05:24:46;;;;;;;24.65;10.25;;;;;;;;;;5038093;28;20099;-54
2022/03/30 05:27:12;;;;;;;27.38;10.43;;;;;;;;;;5048242;28;20095;-51
2022/03/30 05:29:38;;;;;;;25.05;9.80;;;;;;;;;;5051838;28;20111;-49
2022/03/30 05:32:05;;;;;;;18.58;8.90;;;;;;;;;;5051845;28;20025;-50
2022/03/30 05:34:31;;;;;;;20.90;9.40;;;;;;;;;;5051687;28;20037;-51
2022/03/30 05:36:58;;;;;;;21.20;9.48;;;;;;;;;;5052145;28;20052;-51
2022/03/30 05:39:24;;;;;;;18.83;8.73;;;;;;;;;;5051364;28;20025;-56
2022/03/30 05:41:51;;;;;;;20.98;9.20;;;;;;;;;;5032122;28;20073;-48
2022/03/30 05:44:17;;;;;;;21.90;8.70;;;;;;;;;;5051625;28;20025;-49
2022/03/30 05:46:43;;;;;;;16.08;8.18;;;;;;;;;;5052210;28;20387;-52
2022/03/30 05:49:10;;;;;;;19.25;8.18;;;;;;;;;;5051378;28;20558;-47
2022/03/30 05:51:36;;;;;;;21.85;9.00;;;;;;;;;;5051930;28;20024;-53
2022/03/30 05:54:02;;;;;;;16.55;8.38;;;;;;;;;;5050793;28;20454;-50
2022/03/30 05:59:15;;;;;;;17.67;7.30;;;;;;;;;;5051559;28;20082;-51
2022/03/30 06:01:41;;;;;;;17.00;6.65;;;;;;;;;;5051810;28;20033;-47
2022/03/30 06:04:07;;;;;;;18.83;7.45;;;;;;;;;;5051048;28;20128;-53
2022/03/30 06:06:34;;;;;;;14.30;8.02;;;;;;;;;;5050950;28;20387;-53
2022/03/30 06:09:01;;;;;;;17.30;7.53;;;;;;;;;;5051221;28;20463;-51
2022/03/30 06:11:27;;;;;;;14.88;7.45;;;;;;;;;;5041349;28;20044;-52
2022/03/30 06:13:53;;;;;;;15.02;6.97;;;;;;;;;;5040487;28;20640;-51
2022/03/30 06:16:19;;;;;;;21.85;8.10;;;;;;;;;;5051765;28;20122;-52
2022/03/30 06:18:45;;;;;;;13.70;6.80;;;;;;;;;;5050751;28;20435;-53
2022/03/30 06:21:11;;;;;;;14.38;5.93;;;;;;;;;;5051194;28;20128;-52
2022/03/30 06:23:37;;;;;;;15.88;5.95;;;;;;;;;;5051192;28;20144;-51
2022/03/30 06:26:05;;;;;;;17.42;6.85;;;;;;;;;;5048544;28;20103;-51
2022/03/30 06:28:32;;;;;;;21.35;7.05;;;;;;;;;;5049701;28;20091;-51
2022/03/30 06:30:58;;;;;;;15.85;6.43;;;;;;;;;;5050952;28;20813;-49
2022/03/30 06:33:24;;;;;;;11.60;5.57;;;;;;;;;;5034072;28;20052;-52
2022/03/30 06:35:51;;;;;;;12.73;5.95;;;;;;;;;;5045144;28;20108;-48
2022/03/30 06:38:17;;;;;;;15.65;6.82;;;;;;;;;;5042700;28;20732;-51
2022/03/30 06:40:46;;;;;;;19.70;6.18;;;;;;;;;;5038159;28;20033;-51
2022/03/30 06:43:12;;;;;;;19.95;5.60;;;;;;;;;;5037196;28;20105;-55
2022/03/30 06:45:38;;;;;;;35.78;10.25;;;;;;;;;;5035723;28;20496;-49
2022/03/30 06:48:05;;;;;;;24.02;7.32;;;;;;;;;;5041632;28;20029;-50
2022/03/30 06:50:32;;;;;;;21.88;7.97;;;;;;;;;;5037122;28;20127;-53
2022/03/30 06:52:59;;;;;;;29.20;9.13;;;;;;;;;;5039779;28;20447;-51
2022/03/30 06:55:25;;;;;;;25.05;8.73;;;;;;;;;;5038023;28;20136;-50
2022/03/30 06:57:51;;;;;;;24.55;10.18;;;;;;;;;;5033260;28;20126;-50
2022/03/30 07:00:17;;;;;;;23.77;9.32;;;;;;;;;;5033249;28;20049;-48
2022/03/30 07:02:44;;;;;;;21.40;8.25;;;;;;;;;;5035771;28;20095;-51
2022/03/30 07:05:10;;;;;;;21.05;8.63;;;;;;;;;;5033943;28;20102;-51
2022/03/30 07:10:23;;;;;;;24.60;8.32;;;;;;;;;;5033243;28;20104;-52
2022/03/30 07:12:50;;;;;;;22.60;8.98;;;;;;;;;;5034879;28;20024;-54
2022/03/30 07:15:17;;;;;;;24.63;9.10;;;;;;;;;;5038742;28;20108;-52
2022/03/30 07:17:47;;;;;;;29.95;8.13;;;;;;;;;;5034420;28;20117;-51
2022/03/30 07:20:14;;;;;;;22.73;7.68;;;;;;;;;;5032224;28;20038;-55
2022/03/30 07:22:41;;;;;;;25.05;7.45;;;;;;;;;;5032105;28;20037;-51
2022/03/30 07:25:09;;;;;;;20.20;7.38;;;;;;;;;;5034214;28;20032;-51
2022/03/30 07:27:35;;;;;;;21.13;6.53;;;;;;;;;;5037949;28;20049;-55
2022/03/30 07:30:01;;;;;;;13.77;7.13;;;;;;;;;;5044709;28;20072;-49
2022/03/30 07:32:27;;;;;;;21.38;7.28;;;;;;;;;;5039841;28;20411;-53
2022/03/30 07:34:53;;;;;;;23.80;7.10;;;;;;;;;;5037370;28;20490;-53
2022/03/30 07:37:20;;;;;;;24.17;7.53;;;;;;;;;;5030965;28;20024;-53
2022/03/30 07:39:46;;;;;;;25.02;7.93;;;;;;;;;;5035029;28;20487;-51
2022/03/30 07:42:12;;;;;;;24.65;6.43;;;;;;;;;;5036531;28;20044;-52
2022/03/30 07:44:38;;;;;;;20.00;7.13;;;;;;;;;;5035142;28;20022;-53
2022/03/30 07:47:05;;;;;;;23.48;7.85;;;;;;;;;;5035096;28;20121;-52
2022/03/30 07:49:31;;;;;;;14.02;6.03;;;;;;;;;;5033204;28;20103;-54
2022/03/30 07:52:00;;;;;;;17.77;6.40;;;;;;;;;;5035245;28;20107;-50
2022/03/30 07:54:26;;;;;;;14.30;6.10;;;;;;;;;;5038101;28;20029;-55
2022/03/30 07:56:52;;;;;;;16.83;4.88;;;;;;;;;;5036394;28;20033;-54
2022/03/30 07:59:18;;;;;;;18.60;6.32;;;;;;;;;;5036525;28;20509;-52
2022/03/30 08:01:44;;;;;;;13.85;5.57;;;;;;;;;;5036656;28;20037;-50
2022/03/30 08:04:10;;;;;;;15.88;5.22;;;;;;;;;;5037773;28;20064;-53
2022/03/30 08:06:37;;;;;;;18.60;5.78;;;;;;;;;;5037836;28;20500;-53
2022/03/30 08:09:04;;;;;;;13.05;5.47;;;;;;;;;;5048598;28;20072;-50
2022/03/30 08:11:30;;;;;;;15.50;5.28;;;;;;;;;;5048687;28;20029;-52
2022/03/30 08:13:56;;;;;;;13.30;4.60;;;;;;;;;;5048273;28;20470;-53
2022/03/30 08:16:22;;;;;;;15.40;4.60;;;;;;;;;;5047294;28;20032;-55
2022/03/30 08:18:48;;;;;;;15.63;5.03;;;;;;;;;;5047791;28;20116;-53
2022/03/30 08:23:59;;;;;;;13.15;4.68;;;;;;;;;;5048137;28;20129;-55
2022/03/30 08:26:25;;;;;;;15.50;4.30;;;;;;;;;;5048828;28;20558;-54
2022/03/30 08:28:51;;;;;;;12.90;5.05;;;;;;;;;;5048739;28;20056;-54
2022/03/30 08:31:17;;;;;;;13.02;4.63;;;;;;;;;;5048334;28;20021;-48
2022/03/30 08:33:43;;;;;;;15.35;4.60;;;;;;;;;;5048547;28;20035;-55
2022/03/30 08:36:09;;;;;;;16.50;5.35;;;;;;;;;;5048670;28;20399;-49
2022/03/30 08:38:36;;;;;;;14.85;4.57;;;;;;;;;;5048437;28;20767;-51
2022/03/30 08:41:02;;;;;;;11.02;3.83;;;;;;;;;;5048351;28;20134;-47
2022/03/30 08:43:29;;;;;;;12.55;3.95;;;;;;;;;;5048607;28;20063;-47
2022/03/30 08:45:58;;;;;;;12.35;4.60;;;;;;;;;;5048896;28;20094;-49
2022/03/30 08:48:24;;;;;;;16.08;4.95;;;;;;;;;;5048433;28;20041;-49
2022/03/30 08:50:50;;;;;;;11.07;4.05;;;;;;;;;;5048254;28;20095;-48
2022/03/30 08:53:18;;;;;;;12.23;4.57;;;;;;;;;;5047985;28;20021;-48
2022/03/30 08:55:44;;;;;;;9.93;4.45;;;;;;;;;;5044947;28;20025;-47
2022/03/30 08:58:10;;;;;;;10.05;3.83;;;;;;;;;;5048159;28;20108;-49
2022/03/30 09:00:36;;;;;;;12.82;3.90;;;;;;;;;;5048346;28;20136;-53
2022/03/30 09:03:04;;;;;;;9.38;3.67;;;;;;;;;;5048017;28;20112;-55
2022/03/30 09:05:31;;;;;;;11.88;4.07;;;;;;;;;;5047723;28;20037;-54
2022/03/30 09:08:18;;;;;;;11.43;4.47;;;;;;;;;;5048606;28;20546;-52
2022/03/30 09:10:46;;;;;;;13.35;4.25;;;;;;;;;;5047676;28;20033;-50
2022/03/30 09:13:14;;;;;;;13.68;4.38;;;;;;;;;;5048173;28;20132;-49
2022/03/30 09:15:40;;;;;;;13.32;4.57;;;;;;;;;;5048047;28;20029;-54
2022/03/30 09:18:07;;;;;;;10.82;4.03;;;;;;;;;;5047405;28;20108;-49
2022/03/30 09:20:34;;;;;;;11.63;3.92;;;;;;;;;;5048084;28;20049;-48
2022/03/30 09:23:01;;;;;;;11.57;3.45;;;;;;;;;;5048289;28;20879;-49
2022/03/30 09:25:30;;;;;;;10.20;3.95;;;;;;;;;;5047256;28;20403;-50
2022/03/30 09:27:57;;;;;;;9.90;3.90;;;;;;;;;;5047886;28;20059;-52
2022/03/30 09:30:25;;;;;;;14.52;4.07;;;;;;;;;;5047595;28;20045;-55
2022/03/30 09:32:52;;;;;;;9.68;4.07;;;;;;;;;;5047876;28;20025;-50
2022/03/30 09:35:19;;;;;;;10.57;3.90;;;;;;;;;;5047791;28;20483;-54
2022/03/30 09:37:45;;;;;;;14.65;5.25;;;;;;;;;;5047534;28;20112;-55
2022/03/30 09:40:12;;;;;;;8.05;3.38;;;;;;;;;;5047751;28;20491;-54
2022/03/30 09:42:38;;;;;;;10.02;4.00;;;;;;;;;;5047933;28;20438;-54
2022/03/30 09:45:04;;;;;;;11.27;3.70;;;;;;;;;;5046923;28;20029;-54
2022/03/30 09:47:38;;;;;;;7.03;3.35;;;;;;;;;;5047690;28;20025;-52
2022/03/30 09:50:07;;;;;;;10.85;4.20;;;;;;;;;;5047164;28;20040;-53
2022/03/30 09:52:36;;;;;;;14.48;3.95;;;;;;;;;;5047170;28;20104;-54
2022/03/30 09:55:03;;;;;;;10.63;3.50;;;;;;;;;;5047848;28;20033;-54
2022/03/30 09:57:38;;;;;;;9.85;3.92;;;;;;;;;;5046441;28;20022;-55
2022/03/30 10:00:07;;;;;;;11.10;3.90;;;;;;;;;;5047235;28;20032;-53
2022/03/30 10:02:35;;;;;;;10.38;3.75;;;;;;;;;;5047374;28;20364;-50
2022/03/30 10:05:02;;;;;;;10.82;4.03;;;;;;;;;;5047850;28;20111;-52
2022/03/30 10:07:29;;;;;;;12.45;3.50;;;;;;;;;;5047894;28;20478;-53
2022/03/30 10:09:56;;;;;;;13.65;3.67;;;;;;;;;;5047972;28;20545;-50
2022/03/30 10:12:23;;;;;;;12.02;3.65;;;;;;;;;;5047197;28;20059;-53
2022/03/30 10:14:49;;;;;;;11.00;3.10;;;;;;;;;;5050203;28;20108;-54
2022/03/30 10:17:16;;;;;;;9.35;2.80;;;;;;;;;;5050736;28;20491;-53
2022/03/30 10:19:44;;;;;;;7.82;3.45;;;;;;;;;;5051357;28;20535;-52
2022/03/30 10:22:12;;;;;;;8.77;3.38;;;;;;;;;;5050741;28;20017;-54
2022/03/30 10:24:57;;;;;;;7.38;2.95;;;;;;;;;;5051029;28;20095;-54
2022/03/30 10:27:23;;;;;;;6.55;2.50;;;;;;;;;;5050293;28;20033;-55
2022/03/30 10:29:58;;;;;;;12.13;3.88;;;;;;;;;;5050750;28;20044;-55
2022/03/30 10:32:25;;;;;;;13.68;3.90;;;;;;;;;;5050847;28;20104;-51
2022/03/30 10:35:00;;;;;;;9.52;3.42;;;;;;;;;;5050525;28;20021;-51
2022/03/30 10:37:34;;;;;;;10.20;3.35;;;;;;;;;;5050605;28;20155;-50
2022/03/30 10:40:07;;;;;;;8.77;3.25;;;;;;;;;;5051208;28;20108;-49
2022/03/30 10:42:49;;;;;;;12.48;2.95;;;;;;;;;;5050110;28;20037;-54
2022/03/30 10:45:24;;;;;;;8.88;3.20;;;;;;;;;;5050628;28;20032;-49
2022/03/30 10:48:17;;;;;;;9.52;3.28;;;;;;;;;;5048156;28;20037;-49
2022/03/30 10:50:45;;;;;;;9.02;3.50;;;;;;;;;;5044477;28;20052;-55
2022/03/30 10:53:33;;;;;;;7.55;3.13;;;;;;;;;;5049787;28;20021;-53
2022/03/30 10:56:08;;;;;;;8.45;3.20;;;;;;;;;;5050875;28;20032;-54
2022/03/30 10:58:35;;;;;;;10.00;3.05;;;;;;;;;;5050109;28;20052;-53
2022/03/30 11:01:15;;;;;;;8.65;3.28;;;;;;;;;;5050767;28;20372;-50
2022/03/30 11:03:57;;;;;;;10.77;3.17;;;;;;;;;;5050440;28;20037;-48
2022/03/30 11:06:23;;;;;;;10.25;3.10;;;;;;;;;;5050183;28;20031;-49
2022/03/30 11:08:51;;;;;;;10.55;3.50;;;;;;;;;;5050743;28;20111;-52
2022/03/30 11:11:21;;;;;;;7.30;2.75;;;;;;;;;;5049874;28;20029;-53
2022/03/30 11:13:47;;;;;;;7.65;3.72;;;;;;;;;;5050405;28;20112;-53
2022/03/30 11:16:13;;;;;;;12.20;3.83;;;;;;;;;;5049358;28;20036;-50
2022/03/30 11:18:56;;;;;;;7.70;3.50;;;;;;;;;;5034583;28;20390;-47
2022/03/30 11:21:23;;;;;;;8.48;3.00;;;;;;;;;;5049309;28;20040;-52
2022/03/30 11:23:58;;;;;;;11.32;3.00;;;;;;;;;;5049921;28;20786;-49
2022/03/30 11:26:25;;;;;;;8.90;2.97;;;;;;;;;;5049229;28;20036;-55
2022/03/30 11:28:51;;;;;;;5.75;3.00;;;;;;;;;;5049904;28;20153;-52
2022/03/30 11:31:21;;;;;;;8.57;3.25;;;;;;;;;;5049252;28;20033;-53
2022/03/30 11:34:06;;;;;;;8.02;3.30;;;;;;;;;;5049992;28;20033;-55
2022/03/30 11:36:32;;;;;;;11.30;3.15;;;;;;;;;;5049374;28;20025;-52
2022/03/30 11:39:00;;;;;;;7.40;2.92;;;;;;;;;;5048963;28;21363;-50
2022/03/30 11:41:26;;;;;;;10.20;3.42;;;;;;;;;;5047802;28;20036;-54
2022/03/30 11:46:38;;;;;;;9.98;3.40;;;;;;;;;;5047875;28;20071;-53
2022/03/30 11:49:05;;;;;;;6.15;2.67;;;;;;;;;;5049045;28;20462;-52
2022/03/30 11:51:32;;;;;;;7.07;3.13;;;;;;;;;;5048119;28;20021;-54
2022/03/30 11:54:15;;;;;;;8.23;3.40;;;;;;;;;;5049111;28;20036;-54
2022/03/30 11:56:41;;;;;;;8.30;2.97;;;;;;;;;;5048158;28;20025;-54
2022/03/30 11:59:09;;;;;;;6.03;2.63;;;;;;;;;;5048982;28;20025;-49
2022/03/30 12:01:36;;;;;;;8.00;3.20;;;;;;;;;;5045204;28;20055;-50
2022/03/30 12:04:02;;;;;;;10.73;3.05;;;;;;;;;;5047417;28;20375;-50
2022/03/30 12:06:29;;;;;;;9.07;3.13;;;;;;;;;;5045192;28;20037;-51
2022/03/30 12:08:56;;;;;;;10.25;3.60;;;;;;;;;;5049400;28;20039;-48
2022/03/30 12:11:23;;;;;;;8.90;3.53;;;;;;;;;;5049283;28;20037;-52
2022/03/30 12:13:51;;;;;;;7.35;3.55;;;;;;;;;;5049080;28;20033;-54
2022/03/30 12:16:17;;;;;;;6.43;3.13;;;;;;;;;;5048970;28;20579;-53
2022/03/30 12:18:55;;;;;;;7.80;3.00;;;;;;;;;;5049173;28;20033;-51
2022/03/30 12:21:22;;;;;;;9.23;3.42;;;;;;;;;;5049149;28;20036;-52
2022/03/30 12:23:55;;;;;;;8.50;2.85;;;;;;;;;;5048695;28;20534;-51
2022/03/30 12:26:21;;;;;;;8.93;3.08;;;;;;;;;;5048107;28;20116;-50
2022/03/30 12:28:47;;;;;;;10.90;3.05;;;;;;;;;;5048372;28;20130;-48
2022/03/30 12:31:14;;;;;;;7.88;3.22;;;;;;;;;;5048324;28;20373;-48
2022/03/30 12:33:47;;;;;;;7.63;3.42;;;;;;;;;;5048593;28;20063;-51
2022/03/30 12:36:14;;;;;;;7.22;2.60;;;;;;;;;;5048193;28;20099;-48
2022/03/30 12:38:40;;;;;;;7.63;3.20;;;;;;;;;;5048444;28;20029;-50
2022/03/30 12:41:06;;;;;;;7.38;2.88;;;;;;;;;;5048852;28;20120;-49
2022/03/30 12:43:33;;;;;;;8.20;2.55;;;;;;;;;;5044933;28;20162;-53
2022/03/30 12:46:03;;;;;;;9.45;3.08;;;;;;;;;;5033324;28;20040;-52
2022/03/30 12:48:32;;;;;;;9.20;5.70;;;;;;;;;;5043314;28;20025;-49
2022/03/30 12:50:59;;;;;;;11.52;5.00;;;;;;;;;;5028559;28;20048;-52
2022/03/30 12:53:36;;;;;;;9.82;6.00;;;;;;;;;;5046697;28;20485;-50
2022/03/30 12:56:15;;;;;;;10.13;6.32;;;;;;;;;;5048486;28;20550;-48
2022/03/30 12:58:50;;;;;;;9.30;6.05;;;;;;;;;;5046682;28;20047;-54
2022/03/30 13:01:35;;;;;;;13.13;6.05;;;;;;;;;;5041700;28;20095;-53
2022/03/30 13:04:01;;;;;;;9.32;5.88;;;;;;;;;;5032539;28;20045;-53
2022/03/30 13:06:27;;;;;;;8.13;5.78;;;;;;;;;;5039310;28;20369;-52
2022/03/30 13:09:03;;;;;;;12.40;5.07;;;;;;;;;;5037909;28;20037;-52
2022/03/30 13:11:29;;;;;;;8.40;4.65;;;;;;;;;;5048147;28;20111;-52
2022/03/30 13:13:56;;;;;;;10.38;4.45;;;;;;;;;;5046328;28;20029;-51
2022/03/30 13:16:29;;;;;;;8.52;4.47;;;;;;;;;;5027530;28;20539;-54
2022/03/30 13:19:03;;;;;;;9.00;4.18;;;;;;;;;;5043416;28;20396;-53
2022/03/30 13:21:36;;;;;;;8.88;4.70;;;;;;;;;;5047271;28;20087;-54
2022/03/30 13:24:15;;;;;;;9.68;3.88;;;;;;;;;;5045983;28;20049;-55
2022/03/30 13:26:42;;;;;;;7.47;3.20;;;;;;;;;;5026987;28;20040;-51
2022/03/30 13:29:08;;;;;;;7.78;3.35;;;;;;;;;;5042424;28;20133;-55
2022/03/30 13:31:42;;;;;;;9.88;3.92;;;;;;;;;;5046857;28;20024;-53
2022/03/30 13:34:08;;;;;;;6.30;2.95;;;;;;;;;;5046843;28;20479;-52
2022/03/30 13:36:35;;;;;;;6.13;3.28;;;;;;;;;;5044897;28;20130;-54
2022/03/30 13:39:01;;;;;;;7.88;4.03;;;;;;;;;;5047584;28;20029;-55
2022/03/30 13:41:27;;;;;;;8.38;3.10;;;;;;;;;;5047136;28;20036;-54
2022/03/30 13:43:53;;;;;;;9.18;3.08;;;;;;;;;;5047981;28;20033;-54
2022/03/30 13:46:19;;;;;;;8.60;2.88;;;;;;;;;;5047941;28;20108;-48
2022/03/30 13:48:46;;;;;;;7.97;2.80;;;;;;;;;;5049189;28;20032;-51
2022/03/30 13:51:12;;;;;;;9.90;2.45;;;;;;;;;;5052122;28;20028;-48
2022/03/30 13:53:38;;;;;;;5.75;2.63;;;;;;;;;;5051509;28;20029;-52
2022/03/30 13:56:05;;;;;;;9.73;2.53;;;;;;;;;;5051292;28;20053;-52
2022/03/30 13:58:31;;;;;;;12.10;3.53;;;;;;;;;;5050529;28;20087;-52
2022/03/30 14:01:00;;;;;;;10.93;2.92;;;;;;;;;;5052037;28;20031;-51
2022/03/30 14:03:26;;;;;;;14.20;3.08;;;;;;;;;;5050354;28;20044;-53
2022/03/30 14:05:53;;;;;;;7.07;2.85;;;;;;;;;;5051442;28;20040;-51
2022/03/30 14:08:19;;;;;;;7.78;2.78;;;;;;;;;;5051403;28;20028;-47
2022/03/30 14:10:48;;;;;;;4.45;2.47;;;;;;;;;;5051178;28;20139;-50
2022/03/30 14:13:14;;;;;;;5.93;2.78;;;;;;;;;;5051454;28;20476;-48
2022/03/30 14:15:40;;;;;;;4.70;2.15;;;;;;;;;;5051197;28;20025;-49
2022/03/30 14:18:08;;;;;;;6.07;2.55;;;;;;;;;;5051370;28;20021;-52
2022/03/30 14:20:34;;;;;;;8.90;2.50;;;;;;;;;;5051199;28;20491;-52
2022/03/30 14:23:00;;;;;;;5.15;2.70;;;;;;;;;;5051215;28;20076;-50
2022/03/30 14:25:28;;;;;;;3.83;2.00;;;;;;;;;;5050417;28;20046;-52
2022/03/30 14:27:54;;;;;;;4.03;2.38;;;;;;;;;;5050827;28;20087;-47
2022/03/30 14:30:20;;;;;;;4.93;2.28;;;;;;;;;;5050984;28;20046;-47
2022/03/30 14:32:46;;;;;;;4.43;2.00;;;;;;;;;;5050910;28;20487;-51
2022/03/30 14:35:12;;;;;;;7.80;2.20;;;;;;;;;;5050019;28;20035;-52
2022/03/30 14:37:38;;;;;;;5.40;3.08;;;;;;;;;;5050583;28;20608;-48
2022/03/30 14:40:07;;;;;;;3.25;1.73;;;;;;;;;;5039036;28;20029;-50
2022/03/30 14:42:33;;;;;;;5.30;2.08;;;;;;;;;;5050825;28;20422;-52
2022/03/30 14:44:59;;;;;;;7.90;2.40;;;;;;;;;;5050973;28;20108;-50
2022/03/30 14:47:25;;;;;;;6.47;1.77;;;;;;;;;;5050215;28;20097;-49
2022/03/30 14:49:52;;;;;;;2.97;1.73;;;;;;;;;;5049485;28;20108;-52